sensor_id;sensor_type;location;lat;lon;timestamp;P1;durP1;ratioP1;P2;durP2;ratioP2
8252;SDS011;61313;48.396;10.008;2023-12-28T00:01:46;9.37;;;8.03;;
8252;SDS011;61313;48.396;10.008;2023-12-28T00:04:11;9.33;;;8.27;;
8252;SDS011;61313;48.396;10.008;2023-12-28T00:06:36;10.97;;;9.87;;
8252;SDS011;61313;48.396;10.008;2023-12-28T00:09:02;10.77;;;8.73;;
8252;SDS011;61313;48.396;10.008;2023-12-28T00:11:27;10.90;;;8.93;;
8252;SDS011;61313;48.396;10.008;2023-12-28T00:13:53;9.93;;;8.97;;
8252;SDS011;61313;48.396;10.008;2023-12-28T00:16:18;9.33;;;8.10;;
8252;SDS011;61313;48.396;10.008;2023-12-28T00:18:43;9.83;;;8.20;;
8252;SDS011;61313;48.396;10.008;2023-12-28T00:21:09;11.70;;;8.53;;
8252;SDS011;61313;48.396;10.008;2023-12-28T00:23:34;10.93;;;9.30;;
8252;SDS011;61313;48.396;10.008;2023-12-28T00:25:59;10.90;;;9.80;;
8252;SDS011;61313;48.396;10.008;2023-12-28T00:28:25;9.90;;;8.87;;
8252;SDS011;61313;48.396;10.008;2023-12-28T00:30:51;10.77;;;9.17;;
8252;SDS011;61313;48.396;10.008;2023-12-28T00:33:16;8.70;;;7.83;;
8252;SDS011;61313;48.396;10.008;2023-12-28T00:35:41;9.33;;;8.17;;
8252;SDS011;61313;48.396;10.008;2023-12-28T00:38:07;8.77;;;7.87;;
8252;SDS011;61313;48.396;10.008;2023-12-28T00:40:32;13.47;;;9.17;;
8252;SDS011;61313;48.396;10.008;2023-12-28T00:42:58;13.33;;;8.90;;
8252;SDS011;61313;48.396;10.008;2023-12-28T00:45:23;11.30;;;10.10;;
8252;SDS011;61313;48.396;10.008;2023-12-28T00:47:48;13.20;;;9.70;;
8252;SDS011;61313;48.396;10.008;2023-12-28T00:50:14;9.77;;;7.87;;
8252;SDS011;61313;48.396;10.008;2023-12-28T00:52:40;10.37;;;9.27;;
8252;SDS011;61313;48.396;10.008;2023-12-28T00:55:06;17.60;;;8.30;;
8252;SDS011;61313;48.396;10.008;2023-12-28T00:57:32;15.23;;;9.03;;
8252;SDS011;61313;48.396;10.008;2023-12-28T00:59:58;11.47;;;8.57;;
8252;SDS011;61313;48.396;10.008;2023-12-28T01:02:23;10.97;;;8.03;;
8252;SDS011;61313;48.396;10.008;2023-12-28T01:04:48;11.40;;;8.83;;
8252;SDS011;61313;48.396;10.008;2023-12-28T01:07:14;9.50;;;8.50;;
8252;SDS011;61313;48.396;10.008;2023-12-28T01:09:39;12.37;;;11.00;;
8252;SDS011;61313;48.396;10.008;2023-12-28T01:12:05;10.60;;;9.17;;
8252;SDS011;61313;48.396;10.008;2023-12-28T01:14:31;8.07;;;7.27;;
8252;SDS011;61313;48.396;10.008;2023-12-28T01:16:56;9.97;;;8.97;;
8252;SDS011;61313;48.396;10.008;2023-12-28T01:19:22;9.57;;;8.30;;
8252;SDS011;61313;48.396;10.008;2023-12-28T01:21:48;9.87;;;8.23;;
8252;SDS011;61313;48.396;10.008;2023-12-28T01:24:14;11.03;;;9.13;;
8252;SDS011;61313;48.396;10.008;2023-12-28T01:26:40;9.40;;;8.50;;
8252;SDS011;61313;48.396;10.008;2023-12-28T01:29:05;9.83;;;8.40;;
8252;SDS011;61313;48.396;10.008;2023-12-28T01:31:30;10.07;;;8.50;;
8252;SDS011;61313;48.396;10.008;2023-12-28T01:33:56;12.03;;;8.90;;
8252;SDS011;61313;48.396;10.008;2023-12-28T01:36:21;10.77;;;7.60;;
8252;SDS011;61313;48.396;10.008;2023-12-28T01:38:47;10.70;;;8.80;;
8252;SDS011;61313;48.396;10.008;2023-12-28T01:41:13;9.50;;;8.53;;
8252;SDS011;61313;48.396;10.008;2023-12-28T01:43:40;14.10;;;8.47;;
8252;SDS011;61313;48.396;10.008;2023-12-28T01:46:06;11.97;;;9.80;;
8252;SDS011;61313;48.396;10.008;2023-12-28T01:48:35;9.33;;;8.20;;
8252;SDS011;61313;48.396;10.008;2023-12-28T01:51:01;9.40;;;8.37;;
8252;SDS011;61313;48.396;10.008;2023-12-28T01:53:27;15.47;;;8.97;;
8252;SDS011;61313;48.396;10.008;2023-12-28T01:55:53;11.23;;;9.23;;
8252;SDS011;61313;48.396;10.008;2023-12-28T01:58:19;9.40;;;8.50;;
8252;SDS011;61313;48.396;10.008;2023-12-28T02:00:45;10.60;;;9.00;;
8252;SDS011;61313;48.396;10.008;2023-12-28T02:03:12;12.13;;;9.53;;
8252;SDS011;61313;48.396;10.008;2023-12-28T02:05:37;11.57;;;9.00;;
8252;SDS011;61313;48.396;10.008;2023-12-28T02:08:03;10.67;;;8.83;;
8252;SDS011;61313;48.396;10.008;2023-12-28T02:10:29;12.43;;;8.93;;
8252;SDS011;61313;48.396;10.008;2023-12-28T02:12:54;8.20;;;7.33;;
8252;SDS011;61313;48.396;10.008;2023-12-28T02:15:20;11.50;;;9.23;;
8252;SDS011;61313;48.396;10.008;2023-12-28T02:17:47;10.43;;;9.33;;
8252;SDS011;61313;48.396;10.008;2023-12-28T02:20:16;9.50;;;8.23;;
8252;SDS011;61313;48.396;10.008;2023-12-28T02:22:45;8.67;;;7.67;;
8252;SDS011;61313;48.396;10.008;2023-12-28T02:25:11;11.27;;;9.50;;
8252;SDS011;61313;48.396;10.008;2023-12-28T02:27:46;11.80;;;7.67;;
8252;SDS011;61313;48.396;10.008;2023-12-28T02:30:17;12.70;;;9.30;;
8252;SDS011;61313;48.396;10.008;2023-12-28T02:35:50;12.93;;;9.33;;
8252;SDS011;61313;48.396;10.008;2023-12-28T02:38:20;10.07;;;8.10;;
8252;SDS011;61313;48.396;10.008;2023-12-28T02:40:48;11.10;;;8.23;;
8252;SDS011;61313;48.396;10.008;2023-12-28T02:43:14;10.43;;;9.00;;
8252;SDS011;61313;48.396;10.008;2023-12-28T02:45:40;9.87;;;8.43;;
8252;SDS011;61313;48.396;10.008;2023-12-28T02:48:05;10.93;;;8.00;;
8252;SDS011;61313;48.396;10.008;2023-12-28T02:50:31;10.73;;;7.93;;
8252;SDS011;61313;48.396;10.008;2023-12-28T02:52:58;7.87;;;7.03;;
8252;SDS011;61313;48.396;10.008;2023-12-28T02:55:24;12.23;;;8.30;;
8252;SDS011;61313;48.396;10.008;2023-12-28T02:57:50;8.90;;;8.00;;
8252;SDS011;61313;48.396;10.008;2023-12-28T03:00:16;10.73;;;9.63;;
8252;SDS011;61313;48.396;10.008;2023-12-28T03:02:42;11.47;;;9.40;;
8252;SDS011;61313;48.396;10.008;2023-12-28T03:05:07;11.30;;;7.83;;
8252;SDS011;61313;48.396;10.008;2023-12-28T03:07:33;11.60;;;8.93;;
8252;SDS011;61313;48.396;10.008;2023-12-28T03:09:59;12.27;;;9.47;;
8252;SDS011;61313;48.396;10.008;2023-12-28T03:12:25;12.17;;;8.50;;
8252;SDS011;61313;48.396;10.008;2023-12-28T03:14:50;9.77;;;8.87;;
8252;SDS011;61313;48.396;10.008;2023-12-28T03:17:16;9.47;;;8.13;;
8252;SDS011;61313;48.396;10.008;2023-12-28T03:19:41;9.53;;;8.43;;
8252;SDS011;61313;48.396;10.008;2023-12-28T03:22:07;9.60;;;8.13;;
8252;SDS011;61313;48.396;10.008;2023-12-28T03:24:32;9.27;;;8.37;;
8252;SDS011;61313;48.396;10.008;2023-12-28T03:26:58;9.50;;;8.40;;
8252;SDS011;61313;48.396;10.008;2023-12-28T03:29:23;9.17;;;8.23;;
8252;SDS011;61313;48.396;10.008;2023-12-28T03:31:49;10.30;;;8.17;;
8252;SDS011;61313;48.396;10.008;2023-12-28T03:34:14;11.13;;;8.47;;
8252;SDS011;61313;48.396;10.008;2023-12-28T03:36:40;11.90;;;8.00;;
8252;SDS011;61313;48.396;10.008;2023-12-28T03:39:06;10.87;;;8.47;;
8252;SDS011;61313;48.396;10.008;2023-12-28T03:41:31;10.13;;;8.13;;
8252;SDS011;61313;48.396;10.008;2023-12-28T03:43:57;14.90;;;8.53;;
8252;SDS011;61313;48.396;10.008;2023-12-28T03:46:22;11.30;;;10.10;;
8252;SDS011;61313;48.396;10.008;2023-12-28T03:48:48;10.20;;;8.60;;
8252;SDS011;61313;48.396;10.008;2023-12-28T03:51:14;8.97;;;7.13;;
8252;SDS011;61313;48.396;10.008;2023-12-28T03:53:42;9.77;;;8.33;;
8252;SDS011;61313;48.396;10.008;2023-12-28T03:56:17;10.20;;;8.50;;
8252;SDS011;61313;48.396;10.008;2023-12-28T03:58:46;7.87;;;7.07;;
8252;SDS011;61313;48.396;10.008;2023-12-28T04:01:12;8.87;;;7.97;;
8252;SDS011;61313;48.396;10.008;2023-12-28T04:03:37;11.53;;;8.57;;
8252;SDS011;61313;48.396;10.008;2023-12-28T04:06:02;8.97;;;8.03;;
8252;SDS011;61313;48.396;10.008;2023-12-28T04:08:28;8.77;;;7.87;;
8252;SDS011;61313;48.396;10.008;2023-12-28T04:10:53;10.53;;;7.30;;
8252;SDS011;61313;48.396;10.008;2023-12-28T04:13:18;11.60;;;8.30;;
8252;SDS011;61313;48.396;10.008;2023-12-28T04:15:44;9.03;;;8.00;;
8252;SDS011;61313;48.396;10.008;2023-12-28T04:18:09;10.13;;;8.90;;
8252;SDS011;61313;48.396;10.008;2023-12-28T04:20:35;12.20;;;8.70;;
8252;SDS011;61313;48.396;10.008;2023-12-28T04:23:00;10.70;;;9.03;;
8252;SDS011;61313;48.396;10.008;2023-12-28T04:25:25;11.00;;;8.03;;
8252;SDS011;61313;48.396;10.008;2023-12-28T04:27:51;15.73;;;8.50;;
8252;SDS011;61313;48.396;10.008;2023-12-28T04:30:16;11.53;;;8.53;;
8252;SDS011;61313;48.396;10.008;2023-12-28T04:32:41;8.53;;;7.40;;
8252;SDS011;61313;48.396;10.008;2023-12-28T04:35:07;9.53;;;8.03;;
8252;SDS011;61313;48.396;10.008;2023-12-28T04:37:32;9.97;;;7.67;;
8252;SDS011;61313;48.396;10.008;2023-12-28T04:39:58;10.30;;;8.57;;
8252;SDS011;61313;48.396;10.008;2023-12-28T04:42:23;9.77;;;8.77;;
8252;SDS011;61313;48.396;10.008;2023-12-28T04:44:49;9.37;;;8.30;;
8252;SDS011;61313;48.396;10.008;2023-12-28T04:47:14;8.30;;;7.43;;
8252;SDS011;61313;48.396;10.008;2023-12-28T04:49:39;9.40;;;8.50;;
8252;SDS011;61313;48.396;10.008;2023-12-28T04:52:05;11.67;;;8.10;;
8252;SDS011;61313;48.396;10.008;2023-12-28T04:54:31;9.07;;;8.00;;
8252;SDS011;61313;48.396;10.008;2023-12-28T04:56:57;10.43;;;8.30;;
8252;SDS011;61313;48.396;10.008;2023-12-28T04:59:23;10.13;;;7.40;;
8252;SDS011;61313;48.396;10.008;2023-12-28T05:01:48;13.20;;;7.60;;
8252;SDS011;61313;48.396;10.008;2023-12-28T05:04:13;9.20;;;8.00;;
8252;SDS011;61313;48.396;10.008;2023-12-28T05:06:39;9.17;;;7.80;;
8252;SDS011;61313;48.396;10.008;2023-12-28T05:09:04;7.63;;;6.20;;
8252;SDS011;61313;48.396;10.008;2023-12-28T05:11:30;9.40;;;7.30;;
8252;SDS011;61313;48.396;10.008;2023-12-28T05:13:56;14.13;;;8.37;;
8252;SDS011;61313;48.396;10.008;2023-12-28T05:16:21;9.47;;;7.87;;
8252;SDS011;61313;48.396;10.008;2023-12-28T05:18:47;8.57;;;7.63;;
8252;SDS011;61313;48.396;10.008;2023-12-28T05:21:13;11.70;;;7.83;;
8252;SDS011;61313;48.396;10.008;2023-12-28T05:23:38;9.00;;;7.50;;
8252;SDS011;61313;48.396;10.008;2023-12-28T05:26:04;9.27;;;7.40;;
8252;SDS011;61313;48.396;10.008;2023-12-28T05:28:29;10.70;;;8.33;;
8252;SDS011;61313;48.396;10.008;2023-12-28T05:30:55;10.00;;;8.03;;
8252;SDS011;61313;48.396;10.008;2023-12-28T05:33:20;9.50;;;7.33;;
8252;SDS011;61313;48.396;10.008;2023-12-28T05:35:46;8.90;;;7.73;;
8252;SDS011;61313;48.396;10.008;2023-12-28T05:38:11;14.33;;;8.67;;
8252;SDS011;61313;48.396;10.008;2023-12-28T05:40:36;8.63;;;7.70;;
8252;SDS011;61313;48.396;10.008;2023-12-28T05:43:02;10.50;;;7.50;;
8252;SDS011;61313;48.396;10.008;2023-12-28T05:45:28;11.60;;;9.30;;
8252;SDS011;61313;48.396;10.008;2023-12-28T05:47:53;12.93;;;7.83;;
8252;SDS011;61313;48.396;10.008;2023-12-28T05:50:19;12.37;;;7.40;;
8252;SDS011;61313;48.396;10.008;2023-12-28T05:52:44;8.73;;;7.83;;
8252;SDS011;61313;48.396;10.008;2023-12-28T05:55:10;8.70;;;7.30;;
8252;SDS011;61313;48.396;10.008;2023-12-28T05:57:35;9.80;;;8.30;;
8252;SDS011;61313;48.396;10.008;2023-12-28T06:00:00;9.00;;;8.10;;
8252;SDS011;61313;48.396;10.008;2023-12-28T06:02:26;14.20;;;7.97;;
8252;SDS011;61313;48.396;10.008;2023-12-28T06:04:51;9.07;;;7.90;;
8252;SDS011;61313;48.396;10.008;2023-12-28T06:07:16;11.40;;;8.13;;
8252;SDS011;61313;48.396;10.008;2023-12-28T06:09:42;8.50;;;7.70;;
8252;SDS011;61313;48.396;10.008;2023-12-28T06:12:07;11.00;;;8.17;;
8252;SDS011;61313;48.396;10.008;2023-12-28T06:14:33;8.60;;;7.70;;
8252;SDS011;61313;48.396;10.008;2023-12-28T06:16:58;8.97;;;7.90;;
8252;SDS011;61313;48.396;10.008;2023-12-28T06:19:23;10.00;;;8.30;;
8252;SDS011;61313;48.396;10.008;2023-12-28T06:21:49;7.83;;;6.97;;
8252;SDS011;61313;48.396;10.008;2023-12-28T06:24:14;19.80;;;7.87;;
8252;SDS011;61313;48.396;10.008;2023-12-28T06:26:40;7.53;;;6.43;;
8252;SDS011;61313;48.396;10.008;2023-12-28T06:29:09;8.80;;;7.40;;
8252;SDS011;61313;48.396;10.008;2023-12-28T06:31:35;9.63;;;7.70;;
8252;SDS011;61313;48.396;10.008;2023-12-28T06:34:04;9.50;;;7.13;;
8252;SDS011;61313;48.396;10.008;2023-12-28T06:36:33;15.00;;;9.30;;
8252;SDS011;61313;48.396;10.008;2023-12-28T06:38:59;12.30;;;8.17;;
8252;SDS011;61313;48.396;10.008;2023-12-28T06:41:24;13.67;;;9.00;;
8252;SDS011;61313;48.396;10.008;2023-12-28T06:43:51;7.37;;;6.53;;
8252;SDS011;61313;48.396;10.008;2023-12-28T06:46:16;11.60;;;7.27;;
8252;SDS011;61313;48.396;10.008;2023-12-28T06:48:42;8.80;;;6.73;;
8252;SDS011;61313;48.396;10.008;2023-12-28T06:51:08;9.10;;;7.27;;
8252;SDS011;61313;48.396;10.008;2023-12-28T06:53:34;10.73;;;7.97;;
8252;SDS011;61313;48.396;10.008;2023-12-28T06:56:00;9.93;;;7.80;;
8252;SDS011;61313;48.396;10.008;2023-12-28T06:58:25;9.30;;;7.60;;
8252;SDS011;61313;48.396;10.008;2023-12-28T07:00:51;16.23;;;7.40;;
8252;SDS011;61313;48.396;10.008;2023-12-28T07:03:16;8.77;;;7.83;;
8252;SDS011;61313;48.396;10.008;2023-12-28T07:05:42;8.87;;;7.07;;
8252;SDS011;61313;48.396;10.008;2023-12-28T07:08:07;9.90;;;7.27;;
8252;SDS011;61313;48.396;10.008;2023-12-28T07:10:33;7.70;;;6.93;;
8252;SDS011;61313;48.396;10.008;2023-12-28T07:12:59;10.00;;;7.30;;
8252;SDS011;61313;48.396;10.008;2023-12-28T07:15:24;10.83;;;7.53;;
8252;SDS011;61313;48.396;10.008;2023-12-28T07:17:50;10.57;;;7.67;;
8252;SDS011;61313;48.396;10.008;2023-12-28T07:20:15;8.33;;;7.53;;
8252;SDS011;61313;48.396;10.008;2023-12-28T07:22:41;10.13;;;7.83;;
8252;SDS011;61313;48.396;10.008;2023-12-28T07:25:06;8.70;;;7.80;;
8252;SDS011;61313;48.396;10.008;2023-12-28T07:27:33;8.40;;;6.77;;
8252;SDS011;61313;48.396;10.008;2023-12-28T07:29:59;8.77;;;7.27;;
8252;SDS011;61313;48.396;10.008;2023-12-28T07:32:25;11.10;;;8.13;;
8252;SDS011;61313;48.396;10.008;2023-12-28T07:34:52;13.40;;;8.00;;
8252;SDS011;61313;48.396;10.008;2023-12-28T07:37:20;8.00;;;7.20;;
8252;SDS011;61313;48.396;10.008;2023-12-28T07:39:46;9.53;;;7.70;;
8252;SDS011;61313;48.396;10.008;2023-12-28T07:42:12;11.40;;;7.60;;
8252;SDS011;61313;48.396;10.008;2023-12-28T07:44:38;9.27;;;8.30;;
8252;SDS011;61313;48.396;10.008;2023-12-28T07:47:04;11.50;;;8.57;;
8252;SDS011;61313;48.396;10.008;2023-12-28T07:49:30;9.70;;;8.70;;
8252;SDS011;61313;48.396;10.008;2023-12-28T07:51:56;9.00;;;8.10;;
8252;SDS011;61313;48.396;10.008;2023-12-28T07:54:21;9.57;;;8.70;;
8252;SDS011;61313;48.396;10.008;2023-12-28T07:56:47;14.40;;;7.90;;
8252;SDS011;61313;48.396;10.008;2023-12-28T07:59:12;9.70;;;8.53;;
8252;SDS011;61313;48.396;10.008;2023-12-28T08:01:38;13.00;;;8.43;;
8252;SDS011;61313;48.396;10.008;2023-12-28T08:04:03;12.53;;;7.80;;
8252;SDS011;61313;48.396;10.008;2023-12-28T08:06:29;9.10;;;8.20;;
8252;SDS011;61313;48.396;10.008;2023-12-28T08:08:57;9.83;;;8.47;;
8252;SDS011;61313;48.396;10.008;2023-12-28T08:11:24;9.23;;;8.40;;
8252;SDS011;61313;48.396;10.008;2023-12-28T08:13:49;10.17;;;9.17;;
8252;SDS011;61313;48.396;10.008;2023-12-28T08:16:15;10.70;;;9.20;;
8252;SDS011;61313;48.396;10.008;2023-12-28T08:18:40;11.10;;;9.30;;
8252;SDS011;61313;48.396;10.008;2023-12-28T08:21:06;8.07;;;7.27;;
8252;SDS011;61313;48.396;10.008;2023-12-28T08:23:31;9.83;;;8.50;;
8252;SDS011;61313;48.396;10.008;2023-12-28T08:25:56;10.07;;;8.47;;
8252;SDS011;61313;48.396;10.008;2023-12-28T08:28:22;7.83;;;7.03;;
8252;SDS011;61313;48.396;10.008;2023-12-28T08:30:48;12.90;;;7.47;;
8252;SDS011;61313;48.396;10.008;2023-12-28T08:33:13;14.33;;;8.50;;
8252;SDS011;61313;48.396;10.008;2023-12-28T08:35:40;12.93;;;7.77;;
8252;SDS011;61313;48.396;10.008;2023-12-28T08:38:05;13.70;;;7.70;;
8252;SDS011;61313;48.396;10.008;2023-12-28T08:40:31;9.33;;;8.10;;
8252;SDS011;61313;48.396;10.008;2023-12-28T08:42:57;10.90;;;7.43;;
8252;SDS011;61313;48.396;10.008;2023-12-28T08:45:22;8.00;;;7.20;;
8252;SDS011;61313;48.396;10.008;2023-12-28T08:47:48;14.07;;;8.17;;
8252;SDS011;61313;48.396;10.008;2023-12-28T08:50:14;9.03;;;8.10;;
8252;SDS011;61313;48.396;10.008;2023-12-28T08:52:39;9.50;;;8.00;;
8252;SDS011;61313;48.396;10.008;2023-12-28T08:55:05;8.63;;;7.70;;
8252;SDS011;61313;48.396;10.008;2023-12-28T08:57:31;8.73;;;7.83;;
8252;SDS011;61313;48.396;10.008;2023-12-28T08:59:56;8.27;;;7.17;;
8252;SDS011;61313;48.396;10.008;2023-12-28T09:02:22;7.23;;;6.37;;
8252;SDS011;61313;48.396;10.008;2023-12-28T09:04:48;25.97;;;7.83;;
8252;SDS011;61313;48.396;10.008;2023-12-28T09:07:13;14.07;;;9.43;;
8252;SDS011;61313;48.396;10.008;2023-12-28T09:09:39;10.17;;;7.77;;
8252;SDS011;61313;48.396;10.008;2023-12-28T09:12:04;55.30;;;11.63;;
8252;SDS011;61313;48.396;10.008;2023-12-28T09:14:30;17.03;;;7.37;;
8252;SDS011;61313;48.396;10.008;2023-12-28T09:16:55;16.43;;;7.50;;
8252;SDS011;61313;48.396;10.008;2023-12-28T09:19:22;10.17;;;7.37;;
8252;SDS011;61313;48.396;10.008;2023-12-28T09:21:47;12.57;;;7.17;;
8252;SDS011;61313;48.396;10.008;2023-12-28T09:24:13;8.63;;;6.73;;
8252;SDS011;61313;48.396;10.008;2023-12-28T09:26:40;12.57;;;6.87;;
8252;SDS011;61313;48.396;10.008;2023-12-28T09:29:06;9.00;;;7.07;;
8252;SDS011;61313;48.396;10.008;2023-12-28T09:31:31;11.20;;;6.87;;
8252;SDS011;61313;48.396;10.008;2023-12-28T09:33:56;6.97;;;6.27;;
8252;SDS011;61313;48.396;10.008;2023-12-28T09:36:22;8.97;;;6.03;;
8252;SDS011;61313;48.396;10.008;2023-12-28T09:38:47;10.40;;;7.70;;
8252;SDS011;61313;48.396;10.008;2023-12-28T09:41:13;7.67;;;6.30;;
8252;SDS011;61313;48.396;10.008;2023-12-28T09:43:45;8.17;;;6.63;;
8252;SDS011;61313;48.396;10.008;2023-12-28T09:46:23;6.47;;;5.80;;
8252;SDS011;61313;48.396;10.008;2023-12-28T09:48:49;6.97;;;5.00;;
8252;SDS011;61313;48.396;10.008;2023-12-28T09:51:14;6.40;;;5.80;;
8252;SDS011;61313;48.396;10.008;2023-12-28T09:53:40;8.90;;;6.67;;
8252;SDS011;61313;48.396;10.008;2023-12-28T09:56:05;8.20;;;6.80;;
8252;SDS011;61313;48.396;10.008;2023-12-28T09:58:31;7.57;;;5.70;;
8252;SDS011;61313;48.396;10.008;2023-12-28T10:01:00;7.27;;;5.73;;
8252;SDS011;61313;48.396;10.008;2023-12-28T10:03:26;9.07;;;5.93;;
8252;SDS011;61313;48.396;10.008;2023-12-28T10:05:52;5.80;;;5.20;;
8252;SDS011;61313;48.396;10.008;2023-12-28T10:08:17;7.67;;;6.73;;
8252;SDS011;61313;48.396;10.008;2023-12-28T10:10:43;6.77;;;6.07;;
8252;SDS011;61313;48.396;10.008;2023-12-28T10:13:15;7.13;;;6.07;;
8252;SDS011;61313;48.396;10.008;2023-12-28T10:15:41;8.10;;;6.20;;
8252;SDS011;61313;48.396;10.008;2023-12-28T10:18:08;7.43;;;6.03;;
8252;SDS011;61313;48.396;10.008;2023-12-28T10:20:34;7.33;;;5.73;;
8252;SDS011;61313;48.396;10.008;2023-12-28T10:22:59;10.90;;;6.80;;
8252;SDS011;61313;48.396;10.008;2023-12-28T10:25:26;6.73;;;5.80;;
8252;SDS011;61313;48.396;10.008;2023-12-28T10:27:56;8.40;;;5.87;;
8252;SDS011;61313;48.396;10.008;2023-12-28T10:30:22;7.53;;;6.43;;
8252;SDS011;61313;48.396;10.008;2023-12-28T10:32:47;20.13;;;6.87;;
8252;SDS011;61313;48.396;10.008;2023-12-28T10:35:13;8.03;;;6.57;;
8252;SDS011;61313;48.396;10.008;2023-12-28T10:37:39;12.63;;;7.20;;
8252;SDS011;61313;48.396;10.008;2023-12-28T10:40:12;16.73;;;6.40;;
8252;SDS011;61313;48.396;10.008;2023-12-28T10:42:52;9.57;;;6.30;;
8252;SDS011;61313;48.396;10.008;2023-12-28T10:45:20;9.70;;;6.37;;
8252;SDS011;61313;48.396;10.008;2023-12-28T10:50:36;11.20;;;6.47;;
8252;SDS011;61313;48.396;10.008;2023-12-28T10:53:04;6.90;;;5.33;;
8252;SDS011;61313;48.396;10.008;2023-12-28T10:58:34;8.90;;;5.90;;
8252;SDS011;61313;48.396;10.008;2023-12-28T11:01:02;7.07;;;6.37;;
8252;SDS011;61313;48.396;10.008;2023-12-28T11:03:30;7.53;;;6.73;;
8252;SDS011;61313;48.396;10.008;2023-12-28T11:06:00;8.90;;;6.20;;
8252;SDS011;61313;48.396;10.008;2023-12-28T11:08:29;9.40;;;5.80;;
8252;SDS011;61313;48.396;10.008;2023-12-28T11:10:59;8.20;;;6.30;;
8252;SDS011;61313;48.396;10.008;2023-12-28T11:13:29;8.83;;;7.07;;
8252;SDS011;61313;48.396;10.008;2023-12-28T11:15:57;6.70;;;5.90;;
8252;SDS011;61313;48.396;10.008;2023-12-28T11:18:24;9.27;;;6.53;;
8252;SDS011;61313;48.396;10.008;2023-12-28T11:20:53;10.17;;;7.00;;
8252;SDS011;61313;48.396;10.008;2023-12-28T11:23:18;7.53;;;6.60;;
8252;SDS011;61313;48.396;10.008;2023-12-28T11:25:44;8.40;;;6.60;;
8252;SDS011;61313;48.396;10.008;2023-12-28T11:28:11;7.13;;;6.50;;
8252;SDS011;61313;48.396;10.008;2023-12-28T11:30:43;23.80;;;7.50;;
8252;SDS011;61313;48.396;10.008;2023-12-28T11:33:09;18.83;;;8.00;;
8252;SDS011;61313;48.396;10.008;2023-12-28T11:35:36;12.63;;;7.13;;
8252;SDS011;61313;48.396;10.008;2023-12-28T11:38:05;11.03;;;6.77;;
8252;SDS011;61313;48.396;10.008;2023-12-28T11:40:40;11.60;;;7.30;;
8252;SDS011;61313;48.396;10.008;2023-12-28T11:43:14;8.00;;;6.23;;
8252;SDS011;61313;48.396;10.008;2023-12-28T11:45:47;10.77;;;6.17;;
8252;SDS011;61313;48.396;10.008;2023-12-28T11:48:21;7.70;;;6.17;;
8252;SDS011;61313;48.396;10.008;2023-12-28T11:50:49;10.63;;;7.13;;
8252;SDS011;61313;48.396;10.008;2023-12-28T11:53:14;12.27;;;8.17;;
8252;SDS011;61313;48.396;10.008;2023-12-28T11:55:41;10.63;;;7.63;;
8252;SDS011;61313;48.396;10.008;2023-12-28T11:58:07;7.63;;;5.77;;
8252;SDS011;61313;48.396;10.008;2023-12-28T12:00:32;10.73;;;6.33;;
8252;SDS011;61313;48.396;10.008;2023-12-28T12:02:57;13.40;;;7.40;;
8252;SDS011;61313;48.396;10.008;2023-12-28T12:05:23;8.33;;;6.43;;
8252;SDS011;61313;48.396;10.008;2023-12-28T12:07:49;10.97;;;6.40;;
8252;SDS011;61313;48.396;10.008;2023-12-28T12:10:15;10.27;;;6.47;;
8252;SDS011;61313;48.396;10.008;2023-12-28T12:12:41;7.60;;;6.30;;
8252;SDS011;61313;48.396;10.008;2023-12-28T12:15:07;8.50;;;6.80;;
8252;SDS011;61313;48.396;10.008;2023-12-28T12:17:33;7.77;;;6.30;;
8252;SDS011;61313;48.396;10.008;2023-12-28T12:19:59;12.83;;;6.60;;
8252;SDS011;61313;48.396;10.008;2023-12-28T12:22:25;9.67;;;6.10;;
8252;SDS011;61313;48.396;10.008;2023-12-28T12:24:50;8.60;;;6.57;;
8252;SDS011;61313;48.396;10.008;2023-12-28T12:27:17;7.50;;;6.23;;
8252;SDS011;61313;48.396;10.008;2023-12-28T12:29:42;8.67;;;5.90;;
8252;SDS011;61313;48.396;10.008;2023-12-28T12:32:08;7.33;;;6.63;;
8252;SDS011;61313;48.396;10.008;2023-12-28T12:34:34;8.57;;;6.80;;
8252;SDS011;61313;48.396;10.008;2023-12-28T12:37:00;21.00;;;7.53;;
8252;SDS011;61313;48.396;10.008;2023-12-28T12:39:25;9.10;;;6.30;;
8252;SDS011;61313;48.396;10.008;2023-12-28T12:41:51;11.33;;;7.23;;
8252;SDS011;61313;48.396;10.008;2023-12-28T12:44:19;22.17;;;7.63;;
8252;SDS011;61313;48.396;10.008;2023-12-28T12:46:45;23.53;;;7.93;;
8252;SDS011;61313;48.396;10.008;2023-12-28T12:49:11;32.00;;;9.37;;
8252;SDS011;61313;48.396;10.008;2023-12-28T12:51:37;25.27;;;8.80;;
8252;SDS011;61313;48.396;10.008;2023-12-28T12:54:03;15.73;;;7.40;;
8252;SDS011;61313;48.396;10.008;2023-12-28T12:56:29;17.50;;;6.90;;
8252;SDS011;61313;48.396;10.008;2023-12-28T12:58:55;11.03;;;6.37;;
8252;SDS011;61313;48.396;10.008;2023-12-28T13:01:21;9.80;;;6.90;;
8252;SDS011;61313;48.396;10.008;2023-12-28T13:03:47;19.87;;;7.20;;
8252;SDS011;61313;48.396;10.008;2023-12-28T13:06:12;18.10;;;7.50;;
8252;SDS011;61313;48.396;10.008;2023-12-28T13:08:38;14.00;;;6.60;;
8252;SDS011;61313;48.396;10.008;2023-12-28T13:11:03;21.77;;;6.93;;
8252;SDS011;61313;48.396;10.008;2023-12-28T13:13:31;6.23;;;5.63;;
8252;SDS011;61313;48.396;10.008;2023-12-28T13:15:57;10.60;;;5.97;;
8252;SDS011;61313;48.396;10.008;2023-12-28T13:18:22;7.60;;;6.30;;
8252;SDS011;61313;48.396;10.008;2023-12-28T13:20:48;8.90;;;5.97;;
8252;SDS011;61313;48.396;10.008;2023-12-28T13:23:13;6.63;;;5.90;;
8252;SDS011;61313;48.396;10.008;2023-12-28T13:25:38;8.00;;;6.00;;
8252;SDS011;61313;48.396;10.008;2023-12-28T13:28:04;6.67;;;5.97;;
8252;SDS011;61313;48.396;10.008;2023-12-28T13:30:29;7.97;;;6.37;;
8252;SDS011;61313;48.396;10.008;2023-12-28T13:32:55;11.77;;;6.70;;
8252;SDS011;61313;48.396;10.008;2023-12-28T13:35:24;6.20;;;5.10;;
8252;SDS011;61313;48.396;10.008;2023-12-28T13:37:49;8.53;;;5.17;;
8252;SDS011;61313;48.396;10.008;2023-12-28T13:40:14;8.97;;;6.10;;
8252;SDS011;61313;48.396;10.008;2023-12-28T13:42:41;8.10;;;6.40;;
8252;SDS011;61313;48.396;10.008;2023-12-28T13:45:06;7.73;;;6.10;;
8252;SDS011;61313;48.396;10.008;2023-12-28T13:47:32;7.83;;;5.93;;
8252;SDS011;61313;48.396;10.008;2023-12-28T13:49:57;6.40;;;5.70;;
8252;SDS011;61313;48.396;10.008;2023-12-28T13:52:23;6.87;;;5.63;;
8252;SDS011;61313;48.396;10.008;2023-12-28T13:54:48;7.50;;;5.27;;
8252;SDS011;61313;48.396;10.008;2023-12-28T13:57:14;16.93;;;6.10;;
8252;SDS011;61313;48.396;10.008;2023-12-28T13:59:39;7.53;;;5.80;;
8252;SDS011;61313;48.396;10.008;2023-12-28T14:02:05;9.17;;;6.20;;
8252;SDS011;61313;48.396;10.008;2023-12-28T14:04:30;13.80;;;7.33;;
8252;SDS011;61313;48.396;10.008;2023-12-28T14:06:56;13.07;;;7.00;;
8252;SDS011;61313;48.396;10.008;2023-12-28T14:09:21;5.70;;;4.60;;
8252;SDS011;61313;48.396;10.008;2023-12-28T14:11:47;6.00;;;5.50;;
8252;SDS011;61313;48.396;10.008;2023-12-28T14:14:13;7.27;;;5.60;;
8252;SDS011;61313;48.396;10.008;2023-12-28T14:16:39;9.10;;;5.83;;
8252;SDS011;61313;48.396;10.008;2023-12-28T14:19:04;10.90;;;6.70;;
8252;SDS011;61313;48.396;10.008;2023-12-28T14:21:34;5.80;;;5.20;;
8252;SDS011;61313;48.396;10.008;2023-12-28T14:24:03;10.10;;;6.67;;
8252;SDS011;61313;48.396;10.008;2023-12-28T14:26:29;8.90;;;6.27;;
8252;SDS011;61313;48.396;10.008;2023-12-28T14:28:57;11.33;;;7.13;;
8252;SDS011;61313;48.396;10.008;2023-12-28T14:31:24;8.80;;;5.90;;
8252;SDS011;61313;48.396;10.008;2023-12-28T14:33:51;8.93;;;6.60;;
8252;SDS011;61313;48.396;10.008;2023-12-28T14:36:27;8.53;;;6.10;;
8252;SDS011;61313;48.396;10.008;2023-12-28T14:38:57;11.93;;;6.93;;
8252;SDS011;61313;48.396;10.008;2023-12-28T14:41:23;10.10;;;6.40;;
8252;SDS011;61313;48.396;10.008;2023-12-28T14:43:49;11.03;;;7.33;;